Time;durP1;ratioP1;P1;durP2;ratioP2;P2;SDS_P1;SDS_P2;PMS_P1;PMS_P2;Temp;Humidity;BMP_temperature;BMP_pressure;BME280_temperature;BME280_humidity;BME280_pressure;Samples;Min_cycle;Max_cycle;Signal;HPM_P1;HPM_P2
2022/10/31 00:01:10;;;;;;;0.30;0.30;;;13.00;99.90;;;;;;5049896;28;20044;-66
2022/10/31 00:03:36;;;;;;;3.15;0.90;;;12.90;99.90;;;;;;5053603;28;20427;-67
2022/10/31 00:06:01;;;;;;;0.20;0.20;;;12.90;99.90;;;;;;5048576;28;20044;-67
2022/10/31 00:08:27;;;;;;;2.15;0.38;;;13.00;99.90;;;;;;5051275;28;20510;-66
2022/10/31 00:10:52;;;;;;;0.25;0.25;;;13.00;99.90;;;;;;5063912;28;20479;-66
2022/10/31 00:13:18;;;;;;;3.10;1.05;;;13.00;99.90;;;;;;5066941;28;20594;-66
2022/10/31 00:15:43;;;;;;;0.25;0.25;;;12.90;99.90;;;;;;5072407;28;20045;-66
2022/10/31 00:18:10;;;;;;;0.35;0.35;;;13.00;99.90;;;;;;5073547;28;20118;-67
2022/10/31 00:20:36;;;;;;;0.80;0.73;;;13.00;99.90;;;;;;5062296;28;20119;-67
2022/10/31 00:23:03;;;;;;;0.15;0.15;;;13.00;99.90;;;;;;5059310;28;20049;-66
2022/10/31 00:25:32;;;;;;;0.40;0.40;;;13.00;99.90;;;;;;5065383;28;20052;-66
2022/10/31 00:27:58;;;;;;;0.00;0.00;;;13.10;99.90;;;;;;5064426;28;20092;-66
2022/10/31 00:30:23;;;;;;;0.20;0.20;;;13.10;99.90;;;;;;5040785;28;20079;-67
2022/10/31 00:32:49;;;;;;;0.00;0.00;;;13.10;99.90;;;;;;5060712;28;20055;-67
2022/10/31 00:35:15;;;;;;;0.68;0.65;;;13.10;99.90;;;;;;5065240;28;20040;-66
2022/10/31 00:37:41;;;;;;;0.10;0.10;;;13.20;99.90;;;;;;5061755;28;20071;-66
2022/10/31 00:40:07;;;;;;;0.30;0.30;;;13.20;99.90;;;;;;5066890;28;20421;-67
2022/10/31 00:42:32;;;;;;;0.10;0.10;;;13.20;99.90;;;;;;5052892;28;20055;-66
2022/10/31 00:44:58;;;;;;;0.10;0.10;;;13.30;99.90;;;;;;5063087;28;20045;-66
2022/10/31 00:47:23;;;;;;;0.60;0.60;;;13.20;99.90;;;;;;5058634;28;20357;-66
2022/10/31 00:49:49;;;;;;;0.10;0.10;;;13.20;99.90;;;;;;5053864;28;20047;-66
2022/10/31 00:52:15;;;;;;;1.67;1.23;;;13.30;99.90;;;;;;5068738;28;20502;-66
2022/10/31 00:54:40;;;;;;;0.10;0.10;;;13.30;99.90;;;;;;5072544;28;20119;-66
2022/10/31 00:57:06;;;;;;;0.25;0.25;;;13.20;99.90;;;;;;5055310;28;20040;-67
2022/10/31 00:59:31;;;;;;;0.10;0.10;;;13.30;99.90;;;;;;5068450;28;20048;-66
2022/10/31 01:01:57;;;;;;;0.10;0.10;;;13.30;99.90;;;;;;5071699;28;20040;-67
2022/10/31 01:04:22;;;;;;;1.38;1.02;;;13.20;99.90;;;;;;5052741;28;20136;-67
2022/10/31 01:06:48;;;;;;;0.20;0.20;;;13.20;99.90;;;;;;5069903;28;20044;-67
2022/10/31 01:09:13;;;;;;;0.22;0.22;;;13.20;99.90;;;;;;5070905;28;20040;-67
2022/10/31 01:11:39;;;;;;;0.13;0.13;;;13.30;99.90;;;;;;5068961;28;20070;-66
2022/10/31 01:14:04;;;;;;;0.70;0.57;;;13.20;99.90;;;;;;5071617;28;20044;-66
2022/10/31 01:16:30;;;;;;;0.05;0.05;;;13.20;99.90;;;;;;5035123;28;20060;-66
2022/10/31 01:18:56;;;;;;;0.20;0.20;;;13.20;99.90;;;;;;5035382;28;20095;-67
2022/10/31 01:21:24;;;;;;;0.22;0.22;;;13.20;99.90;;;;;;5046949;28;20400;-66
2022/10/31 01:23:52;;;;;;;0.30;0.30;;;13.10;99.90;;;;;;5051697;28;20037;-66
2022/10/31 01:26:26;;;;;;;1.10;0.85;;;13.10;99.90;;;;;;5037487;28;20053;-66
2022/10/31 01:28:55;;;;;;;2.72;0.95;;;13.10;99.90;;;;;;5069969;28;20404;-66
2022/10/31 01:31:27;;;;;;;0.10;0.10;;;13.20;99.90;;;;;;5042072;28;20053;-66
2022/10/31 01:33:54;;;;;;;0.10;0.10;;;13.10;99.90;;;;;;5039020;28;20441;-66
2022/10/31 01:36:25;;;;;;;0.10;0.10;;;13.10;99.90;;;;;;5054139;28;20091;-66
2022/10/31 01:38:52;;;;;;;0.20;0.20;;;13.20;99.90;;;;;;5061909;28;20088;-66
2022/10/31 01:41:22;;;;;;;0.47;0.30;;;13.10;99.90;;;;;;5054895;28;20075;-67
2022/10/31 01:43:57;;;;;;;0.20;0.20;;;13.00;99.90;;;;;;5052155;28;20081;-66
2022/10/31 01:46:27;;;;;;;0.10;0.10;;;13.00;99.90;;;;;;5045361;28;20140;-66
2022/10/31 01:48:55;;;;;;;0.10;0.10;;;13.00;99.90;;;;;;5071125;28;20044;-66
2022/10/31 01:51:25;;;;;;;3.10;1.63;;;13.00;99.90;;;;;;5052742;28;20113;-66
2022/10/31 01:53:55;;;;;;;0.15;0.15;;;12.90;99.90;;;;;;5071294;28;20485;-66
2022/10/31 01:56:21;;;;;;;0.47;0.40;;;12.90;99.90;;;;;;5060759;28;20099;-66
2022/10/31 01:58:47;;;;;;;0.28;0.28;;;12.90;99.90;;;;;;5062264;28;20174;-66
2022/10/31 02:01:15;;;;;;;0.38;0.38;;;12.90;99.90;;;;;;5066644;28;20036;-66
2022/10/31 02:03:41;;;;;;;0.20;0.20;;;12.70;99.90;;;;;;5070393;28;20040;-66
2022/10/31 02:06:17;;;;;;;0.30;0.30;;;12.80;99.90;;;;;;5058515;28;20041;-66
2022/10/31 02:08:43;;;;;;;0.45;0.45;;;12.80;99.90;;;;;;5034181;28;20053;-66
2022/10/31 02:11:09;;;;;;;0.50;0.50;;;12.80;99.90;;;;;;5047008;28;20056;-66
2022/10/31 02:13:35;;;;;;;0.17;0.17;;;12.70;99.90;;;;;;5061497;28;20482;-66
2022/10/31 02:16:00;;;;;;;0.30;0.30;;;12.70;99.90;;;;;;5048737;28;20076;-66
2022/10/31 02:18:30;;;;;;;0.40;0.40;;;12.60;99.90;;;;;;5070963;28;20844;-66
2022/10/31 02:21:09;;;;;;;0.90;0.73;;;12.60;99.90;;;;;;5053600;28;20395;-66
2022/10/31 02:23:51;;;;;;;0.47;0.47;;;12.60;99.90;;;;;;5061488;28;20048;-66
2022/10/31 02:26:56;;;;;;;0.30;0.30;;;12.50;99.90;;;;;;5068453;28;20395;-66
2022/10/31 02:29:46;;;;;;;0.22;0.22;;;12.50;99.90;;;;;;5054301;28;20056;-66
2022/10/31 02:32:44;;;;;;;0.20;0.20;;;12.60;99.90;;;;;;5065344;28;20048;-66
2022/10/31 02:35:16;;;;;;;0.20;0.20;;;12.50;99.90;;;;;;5056828;28;20040;-66
2022/10/31 02:37:58;;;;;;;0.40;0.40;;;12.50;99.90;;;;;;5070988;28;20517;-66
2022/10/31 02:40:37;;;;;;;0.15;0.15;;;12.50;99.90;;;;;;5046050;28;20053;-66
2022/10/31 02:43:20;;;;;;;0.10;0.10;;;12.40;99.90;;;;;;5051125;28;20053;-66
2022/10/31 02:45:49;;;;;;;0.27;0.27;;;12.50;99.90;;;;;;5038925;28;20131;-66
2022/10/31 02:48:23;;;;;;;0.40;0.40;;;12.40;99.90;;;;;;5058751;28;20056;-66
2022/10/31 02:50:55;;;;;;;0.17;0.17;;;12.40;99.90;;;;;;5052386;28;20493;-66
2022/10/31 02:53:21;;;;;;;1.50;1.40;;;12.40;99.90;;;;;;5070002;28;20045;-66
2022/10/31 02:56:04;;;;;;;0.20;0.20;;;12.40;99.90;;;;;;5068857;28;20388;-66
2022/10/31 02:58:36;;;;;;;0.20;0.20;;;12.30;99.90;;;;;;5070165;28;20078;-66
2022/10/31 03:01:10;;;;;;;0.25;0.25;;;12.30;99.90;;;;;;5055928;28;20613;-66
2022/10/31 03:04:05;;;;;;;0.10;0.10;;;12.40;99.90;;;;;;5065913;28;20040;-66
2022/10/31 03:06:35;;;;;;;0.55;0.50;;;12.30;99.90;;;;;;5061328;28;20060;-66
2022/10/31 03:09:20;;;;;;;0.08;0.08;;;12.30;99.90;;;;;;5069138;28;20427;-66
2022/10/31 03:11:57;;;;;;;0.20;0.20;;;12.20;99.90;;;;;;5069675;28;20079;-66
2022/10/31 03:15:00;;;;;;;0.35;0.35;;;12.30;99.90;;;;;;5061406;28;20052;-66
2022/10/31 03:17:55;;;;;;;0.10;0.10;;;12.30;99.90;;;;;;5037358;28;20048;-66
2022/10/31 03:20:28;;;;;;;0.17;0.17;;;12.20;99.90;;;;;;5007933;28;20106;-66
2022/10/31 03:22:56;;;;;;;0.10;0.10;;;12.10;99.90;;;;;;5058973;28;20033;-65
2022/10/31 03:25:22;;;;;;;0.90;0.90;;;12.10;99.90;;;;;;5055184;28;20098;-66
2022/10/31 03:27:50;;;;;;;0.10;0.10;;;12.10;99.90;;;;;;5070288;28;20395;-66
2022/10/31 03:30:16;;;;;;;0.20;0.20;;;12.10;99.90;;;;;;5049831;28;20553;-66
2022/10/31 03:32:52;;;;;;;1.95;1.30;;;12.00;99.90;;;;;;5057679;28;20056;-66
2022/10/31 03:35:20;;;;;;;0.55;0.55;;;12.00;99.90;;;;;;5050659;28;20440;-66
2022/10/31 03:37:47;;;;;;;0.57;0.43;;;12.00;99.90;;;;;;5052856;28;20048;-66
2022/10/31 03:40:16;;;;;;;0.30;0.30;;;12.00;99.90;;;;;;5062907;28;20131;-66
2022/10/31 03:42:48;;;;;;;0.20;0.20;;;11.90;99.90;;;;;;5068822;28;20099;-66
2022/10/31 03:45:19;;;;;;;3.50;0.85;;;12.00;99.90;;;;;;5057253;28;20055;-66
2022/10/31 03:47:45;;;;;;;0.28;0.28;;;12.00;99.90;;;;;;5073474;28;20127;-66
2022/10/31 03:50:14;;;;;;;0.50;0.50;;;12.00;99.90;;;;;;5064327;28;20132;-66
2022/10/31 03:52:51;;;;;;;0.20;0.20;;;12.00;99.90;;;;;;5053933;28;20415;-66
2022/10/31 03:55:20;;;;;;;0.82;0.82;;;12.00;99.90;;;;;;5049581;28;20059;-66
2022/10/31 03:57:57;;;;;;;0.20;0.20;;;12.00;99.90;;;;;;5060040;28;20040;-66
2022/10/31 04:00:23;;;;;;;0.30;0.30;;;12.00;99.90;;;;;;5040715;28;20086;-66
2022/10/31 04:02:58;;;;;;;0.40;0.40;;;12.00;99.90;;;;;;5053803;28;20357;-66
2022/10/31 04:05:24;;;;;;;0.22;0.22;;;12.00;99.90;;;;;;5070205;28;20041;-66
2022/10/31 04:07:54;;;;;;;0.20;0.20;;;11.90;99.90;;;;;;5073594;28;20045;-66
2022/10/31 04:10:22;;;;;;;0.60;0.40;;;11.90;99.90;;;;;;5070090;28;20040;-66
2022/10/31 04:12:52;;;;;;;0.10;0.10;;;11.90;99.90;;;;;;5056457;28;20472;-66
2022/10/31 04:15:19;;;;;;;0.20;0.20;;;11.90;99.90;;;;;;5064521;28;20494;-66
2022/10/31 04:17:47;;;;;;;0.10;0.10;;;12.00;99.90;;;;;;5068444;28;20093;-66
2022/10/31 04:20:16;;;;;;;0.45;0.45;;;12.00;99.90;;;;;;5050976;28;20044;-66
2022/10/31 04:22:41;;;;;;;0.30;0.30;;;11.90;99.90;;;;;;5054844;28;20135;-66
2022/10/31 04:25:07;;;;;;;0.47;0.47;;;11.90;99.90;;;;;;5063540;28;20173;-66
2022/10/31 04:27:33;;;;;;;0.85;0.85;;;11.90;99.90;;;;;;5065181;28;20057;-66
2022/10/31 04:29:59;;;;;;;0.52;0.35;;;11.80;99.90;;;;;;5072266;28;20391;-66
2022/10/31 04:32:25;;;;;;;0.10;0.10;;;11.70;99.90;;;;;;5071473;28;20040;-66
2022/10/31 04:34:50;;;;;;;0.57;0.57;;;11.70;99.90;;;;;;5062325;28;20373;-66
2022/10/31 04:37:16;;;;;;;0.25;0.25;;;11.70;99.90;;;;;;5059321;28;20115;-66
2022/10/31 04:39:41;;;;;;;0.15;0.15;;;11.70;99.90;;;;;;5073372;28;20070;-66
2022/10/31 04:42:07;;;;;;;0.20;0.20;;;11.70;99.90;;;;;;5067647;28;20048;-66
2022/10/31 04:44:33;;;;;;;0.05;0.05;;;11.60;99.90;;;;;;5060953;28;20102;-66
2022/10/31 04:46:58;;;;;;;1.25;0.77;;;11.60;99.90;;;;;;5061756;28;20043;-66
2022/10/31 04:49:24;;;;;;;1.45;1.35;;;11.60;99.90;;;;;;5053093;28;20075;-66
2022/10/31 04:51:49;;;;;;;0.03;0.03;;;11.60;99.90;;;;;;5035716;28;20040;-66
2022/10/31 04:54:15;;;;;;;0.47;0.47;;;11.60;99.90;;;;;;5055047;28;20076;-66
2022/10/31 04:56:40;;;;;;;0.10;0.10;;;11.50;99.90;;;;;;5057947;28;20049;-66
2022/10/31 04:59:06;;;;;;;0.10;0.10;;;11.50;99.90;;;;;;5066840;28;20044;-66
2022/10/31 05:01:31;;;;;;;2.45;1.02;;;11.50;99.90;;;;;;5069976;28;20055;-66
2022/10/31 05:03:57;;;;;;;1.30;1.20;;;11.50;99.90;;;;;;5051814;28;20047;-66
2022/10/31 05:06:23;;;;;;;1.77;0.95;;;11.50;99.90;;;;;;5052127;28;20044;-66
2022/10/31 05:08:48;;;;;;;0.13;0.13;;;11.40;99.90;;;;;;5055001;28;20049;-66
2022/10/31 05:11:14;;;;;;;0.10;0.10;;;11.40;99.90;;;;;;5034345;28;20395;-66
2022/10/31 05:13:39;;;;;;;0.20;0.20;;;11.30;99.90;;;;;;5044618;28;20408;-66
2022/10/31 05:16:05;;;;;;;0.28;0.28;;;11.30;99.90;;;;;;5071522;28;20028;-66
2022/10/31 05:18:31;;;;;;;0.30;0.30;;;11.30;99.90;;;;;;5071437;28;20071;-66
2022/10/31 05:20:56;;;;;;;1.45;0.85;;;11.30;99.90;;;;;;5065246;28;20029;-66
2022/10/31 05:23:22;;;;;;;0.55;0.55;;;11.40;99.90;;;;;;5051655;28;20060;-66
2022/10/31 05:25:47;;;;;;;0.82;0.82;;;11.30;99.90;;;;;;5071794;28;20040;-67
2022/10/31 05:28:13;;;;;;;0.10;0.10;;;11.20;99.90;;;;;;5060665;28;20044;-66
2022/10/31 05:30:38;;;;;;;0.60;0.60;;;11.20;99.90;;;;;;5067912;28;20123;-66
2022/10/31 05:33:04;;;;;;;0.10;0.10;;;11.10;99.90;;;;;;5049141;28;20484;-66
2022/10/31 05:35:31;;;;;;;0.20;0.20;;;11.10;99.90;;;;;;5061003;28;20045;-66
2022/10/31 05:37:58;;;;;;;0.73;0.73;;;11.10;99.90;;;;;;5063014;28;20486;-66
2022/10/31 05:40:25;;;;;;;0.10;0.10;;;11.10;99.90;;;;;;5054649;28;20037;-66
2022/10/31 05:42:52;;;;;;;1.08;1.02;;;11.10;99.90;;;;;;5064684;28;20499;-66
2022/10/31 05:45:19;;;;;;;0.10;0.10;;;11.10;99.90;;;;;;5055419;28;20045;-66
2022/10/31 05:47:58;;;;;;;0.65;0.65;;;11.10;99.90;;;;;;5046091;28;20048;-66
2022/10/31 05:50:25;;;;;;;0.10;0.10;;;11.10;99.90;;;;;;5067612;28;20616;-66
2022/10/31 05:52:59;;;;;;;0.47;0.13;;;11.10;99.90;;;;;;5066540;28;20036;-67
2022/10/31 05:55:25;;;;;;;0.25;0.25;;;11.10;99.90;;;;;;5065132;28;20082;-67
2022/10/31 05:57:52;;;;;;;0.45;0.45;;;11.20;99.90;;;;;;5054631;28;20487;-67
2022/10/31 06:00:19;;;;;;;0.30;0.30;;;11.20;99.90;;;;;;5055802;28;20594;-67
2022/10/31 06:02:44;;;;;;;1.10;0.57;;;11.10;99.90;;;;;;5051954;28;20048;-67
2022/10/31 06:05:10;;;;;;;0.65;0.65;;;11.10;99.90;;;;;;5065666;28;20048;-67
2022/10/31 06:07:36;;;;;;;0.50;0.50;;;11.10;99.90;;;;;;5059877;28;20059;-67
2022/10/31 06:10:05;;;;;;;0.57;0.57;;;11.10;99.90;;;;;;5052936;28;20053;-67
2022/10/31 06:12:30;;;;;;;0.20;0.20;;;11.10;99.90;;;;;;5069866;28;20147;-67
2022/10/31 06:14:56;;;;;;;5.78;1.15;;;11.00;99.90;;;;;;5051504;28;20132;-67
2022/10/31 06:17:22;;;;;;;0.20;0.20;;;11.00;99.90;;;;;;5067436;28;20057;-67
2022/10/31 06:19:47;;;;;;;0.20;0.20;;;11.00;99.90;;;;;;5070955;28;20036;-67
2022/10/31 06:22:13;;;;;;;0.13;0.13;;;11.00;99.90;;;;;;5060378;28;20041;-67
2022/10/31 06:24:39;;;;;;;1.17;1.08;;;11.00;99.90;;;;;;5058871;28;20048;-67
2022/10/31 06:27:05;;;;;;;0.57;0.57;;;11.00;99.90;;;;;;5067391;28;20044;-67
2022/10/31 06:29:31;;;;;;;0.73;0.73;;;11.00;99.90;;;;;;5059285;28;20089;-67
2022/10/31 06:31:56;;;;;;;0.10;0.10;;;11.00;99.90;;;;;;5051240;28;20072;-67
2022/10/31 06:34:22;;;;;;;0.10;0.10;;;11.00;99.90;;;;;;5052201;28;20045;-67
2022/10/31 06:36:48;;;;;;;3.17;2.20;;;11.00;99.90;;;;;;5053921;28;20032;-67
2022/10/31 06:39:14;;;;;;;0.05;0.05;;;11.00;99.90;;;;;;5068737;28;20442;-66
2022/10/31 06:41:41;;;;;;;0.15;0.15;;;11.00;99.90;;;;;;5067916;28;20055;-67
2022/10/31 06:44:07;;;;;;;0.30;0.30;;;10.90;99.90;;;;;;5057070;28;20048;-67
2022/10/31 06:46:33;;;;;;;0.63;0.47;;;10.90;99.90;;;;;;5064521;28;20124;-67
2022/10/31 06:48:58;;;;;;;1.23;0.65;;;11.00;99.90;;;;;;5070246;28;20127;-66
2022/10/31 06:51:24;;;;;;;0.10;0.10;;;11.00;99.90;;;;;;5070034;28;20525;-67
2022/10/31 06:53:49;;;;;;;0.00;0.00;;;10.90;99.90;;;;;;5054035;28;20040;-67
2022/10/31 06:56:15;;;;;;;0.20;0.20;;;11.00;99.90;;;;;;5069843;28;20112;-67
2022/10/31 06:58:40;;;;;;;1.17;0.95;;;11.00;99.90;;;;;;5060206;28;20044;-67
2022/10/31 07:01:06;;;;;;;0.30;0.30;;;11.00;99.90;;;;;;5057083;28;20094;-67
2022/10/31 07:03:32;;;;;;;4.75;1.98;;;11.00;99.90;;;;;;5069213;28;20048;-66
2022/10/31 07:05:57;;;;;;;0.30;0.30;;;11.00;99.90;;;;;;5063479;28;20044;-67
2022/10/31 07:08:24;;;;;;;0.63;0.63;;;11.00;99.90;;;;;;5055930;28;20049;-67
2022/10/31 07:10:55;;;;;;;0.57;0.57;;;11.10;99.90;;;;;;5050746;28;20047;-67
2022/10/31 07:13:25;;;;;;;0.10;0.10;;;11.10;99.90;;;;;;5062740;28;20111;-67
2022/10/31 07:15:52;;;;;;;0.85;0.85;;;11.10;99.90;;;;;;5055209;28;20048;-67
2022/10/31 07:18:17;;;;;;;0.20;0.20;;;11.10;99.90;;;;;;5054538;28;20055;-68
2022/10/31 07:20:43;;;;;;;1.23;1.13;;;11.10;99.90;;;;;;5054717;28;20056;-67
2022/10/31 07:23:12;;;;;;;4.15;1.15;;;11.10;99.90;;;;;;5049571;28;20061;-67
2022/10/31 07:25:39;;;;;;;0.82;0.70;;;11.20;99.90;;;;;;5062909;28;20048;-67
2022/10/31 07:28:04;;;;;;;0.20;0.20;;;11.20;99.90;;;;;;5050941;28;20059;-67
2022/10/31 07:30:31;;;;;;;0.30;0.30;;;11.20;99.90;;;;;;5051916;28;20040;-67
2022/10/31 07:32:57;;;;;;;0.20;0.20;;;11.20;99.90;;;;;;5053552;28;20128;-67
2022/10/31 07:35:25;;;;;;;0.38;0.38;;;11.20;99.90;;;;;;5055426;28;20045;-66
2022/10/31 07:37:52;;;;;;;0.55;0.52;;;11.20;99.90;;;;;;5044097;28;20036;-67
2022/10/31 07:40:18;;;;;;;0.30;0.30;;;11.20;99.90;;;;;;5067880;28;20036;-67
2022/10/31 07:42:47;;;;;;;1.60;1.45;;;11.20;99.90;;;;;;5061082;28;20048;-67
2022/10/31 07:45:16;;;;;;;0.10;0.10;;;11.30;99.90;;;;;;5053559;28;20551;-67
2022/10/31 07:47:43;;;;;;;0.47;0.47;;;11.30;99.90;;;;;;5053149;28;20052;-67
2022/10/31 07:50:11;;;;;;;1.13;1.02;;;11.30;99.90;;;;;;5044050;28;20045;-66
2022/10/31 07:52:37;;;;;;;0.50;0.50;;;11.30;99.90;;;;;;5041729;28;20538;-66
2022/10/31 07:55:03;;;;;;;1.30;0.45;;;11.40;99.90;;;;;;5058677;28;20080;-66
2022/10/31 07:57:29;;;;;;;0.52;0.52;;;11.40;99.90;;;;;;5038304;28;20032;-66
2022/10/31 07:59:55;;;;;;;0.98;0.98;;;11.50;99.90;;;;;;5059606;28;20095;-66
2022/10/31 08:02:20;;;;;;;0.20;0.20;;;11.50;99.90;;;;;;5039633;28;20053;-66
2022/10/31 08:04:46;;;;;;;0.20;0.20;;;11.60;99.90;;;;;;5053375;28;20361;-66
2022/10/31 08:07:11;;;;;;;2.05;1.13;;;11.60;99.90;;;;;;5057030;28;20052;-66
2022/10/31 08:09:37;;;;;;;0.10;0.10;;;11.60;99.90;;;;;;5047637;28;20054;-68
2022/10/31 08:12:03;;;;;;;0.20;0.20;;;11.60;99.90;;;;;;5054588;28;20036;-66
2022/10/31 08:14:28;;;;;;;0.80;0.80;;;11.70;99.90;;;;;;5065210;28;20052;-66
2022/10/31 08:16:54;;;;;;;0.10;0.10;;;11.70;99.90;;;;;;5057222;28;20044;-66
2022/10/31 08:19:20;;;;;;;0.20;0.20;;;11.70;99.90;;;;;;5064987;28;20048;-66
2022/10/31 08:21:45;;;;;;;0.10;0.10;;;11.80;99.90;;;;;;5067749;28;20094;-67
2022/10/31 08:24:11;;;;;;;1.48;0.63;;;11.80;99.90;;;;;;5064716;28;20041;-66
2022/10/31 08:26:36;;;;;;;0.50;0.50;;;11.90;99.90;;;;;;5066212;28;20044;-66
2022/10/31 08:29:02;;;;;;;0.82;0.82;;;11.90;99.90;;;;;;5063142;28;20103;-66
2022/10/31 08:31:28;;;;;;;0.20;0.20;;;12.00;99.90;;;;;;5070169;28;20496;-66
2022/10/31 08:33:54;;;;;;;0.00;0.00;;;12.10;99.90;;;;;;5053413;28;20115;-66
2022/10/31 08:36:20;;;;;;;0.10;0.10;;;12.10;99.90;;;;;;5069778;28;20128;-66
2022/10/31 08:38:49;;;;;;;0.20;0.20;;;12.20;99.90;;;;;;5067085;28;20049;-66
2022/10/31 08:41:15;;;;;;;0.15;0.15;;;12.20;99.90;;;;;;5068950;28;20052;-66
2022/10/31 08:43:40;;;;;;;0.40;0.40;;;12.20;99.90;;;;;;5072390;28;20040;-66
2022/10/31 08:46:06;;;;;;;0.10;0.10;;;12.20;99.90;;;;;;5056444;28;20037;-66
2022/10/31 08:48:32;;;;;;;0.03;0.03;;;12.30;99.90;;;;;;5054791;28;20049;-66
2022/10/31 08:50:59;;;;;;;0.10;0.10;;;12.30;99.90;;;;;;5062729;28;20091;-66
2022/10/31 08:53:25;;;;;;;0.65;0.65;;;12.40;99.90;;;;;;5061325;28;20431;-66
2022/10/31 08:55:50;;;;;;;1.20;0.55;;;12.40;99.90;;;;;;5054004;28;20127;-66
2022/10/31 08:58:18;;;;;;;1.23;0.63;;;12.40;99.90;;;;;;5057435;28;20124;-66
2022/10/31 09:00:45;;;;;;;0.32;0.32;;;12.40;99.90;;;;;;5043203;28;20036;-66
2022/10/31 09:03:17;;;;;;;0.20;0.20;;;12.40;99.90;;;;;;5047274;28;20045;-66
2022/10/31 09:05:43;;;;;;;0.28;0.28;;;12.50;99.90;;;;;;5060857;28;20504;-67
2022/10/31 09:08:09;;;;;;;1.33;1.23;;;12.50;99.90;;;;;;5034977;28;20059;-67
2022/10/31 09:10:36;;;;;;;0.20;0.20;;;12.60;99.90;;;;;;5047093;28;20056;-67
2022/10/31 09:13:08;;;;;;;0.10;0.10;;;12.60;99.90;;;;;;5064263;28;20462;-67
2022/10/31 09:15:36;;;;;;;0.10;0.10;;;12.70;99.90;;;;;;5064727;28;20435;-67
2022/10/31 09:18:02;;;;;;;1.95;0.73;;;12.80;99.90;;;;;;5063986;28;20530;-67
2022/10/31 09:20:29;;;;;;;0.63;0.52;;;12.80;99.90;;;;;;5067873;28;20040;-67
2022/10/31 09:22:59;;;;;;;0.45;0.45;;;12.90;99.90;;;;;;5050910;28;20041;-66
2022/10/31 09:25:26;;;;;;;0.50;0.50;;;13.00;99.90;;;;;;5057043;28;20072;-67
2022/10/31 09:27:55;;;;;;;0.75;0.75;;;13.00;99.90;;;;;;5050431;28;20102;-67
2022/10/31 09:30:20;;;;;;;0.10;0.10;;;13.10;99.90;;;;;;5050998;28;20052;-67
2022/10/31 09:32:46;;;;;;;1.75;0.30;;;13.10;99.90;;;;;;5043591;28;20060;-67
2022/10/31 09:35:11;;;;;;;0.10;0.10;;;13.30;99.90;;;;;;5068340;28;20047;-67
2022/10/31 09:37:37;;;;;;;0.35;0.35;;;13.50;99.90;;;;;;5036340;28;20045;-67
2022/10/31 09:40:03;;;;;;;0.32;0.32;;;14.00;99.90;;;;;;5045954;28;20061;-68
2022/10/31 09:42:45;;;;;;;0.20;0.20;;;14.40;99.90;;;;;;5062952;28;20045;-68
2022/10/31 09:45:38;;;;;;;0.43;0.43;;;14.70;99.90;;;;;;5061022;28;20044;-67
2022/10/31 09:48:16;;;;;;;0.10;0.10;;;14.90;99.90;;;;;;5027534;28;20502;-68
2022/10/31 09:50:47;;;;;;;0.10;0.10;;;15.10;99.90;;;;;;5061900;28;20123;-68
2022/10/31 09:53:27;;;;;;;0.30;0.30;;;15.40;99.90;;;;;;5070173;28;20044;-67
2022/10/31 09:55:54;;;;;;;0.75;0.75;;;15.60;99.90;;;;;;5063675;28;20118;-67
2022/10/31 09:58:25;;;;;;;0.43;0.43;;;15.50;99.90;;;;;;5057205;28;20048;-67
2022/10/31 10:00:53;;;;;;;0.38;0.38;;;15.30;99.90;;;;;;5057302;28;20058;-67
2022/10/31 10:03:31;;;;;;;0.10;0.10;;;15.10;99.90;;;;;;5063681;28;20041;-67
2022/10/31 10:06:16;;;;;;;0.03;0.03;;;14.90;99.90;;;;;;5038924;28;20048;-67
2022/10/31 10:08:42;;;;;;;0.75;0.75;;;14.70;99.90;;;;;;5039297;28;20048;-66
2022/10/31 10:11:10;;;;;;;1.15;0.70;;;14.60;99.90;;;;;;5057770;28;20039;-67
2022/10/31 10:14:06;;;;;;;0.05;0.05;;;14.60;99.90;;;;;;5043091;28;20056;-67
2022/10/31 10:16:34;;;;;;;0.93;0.85;;;14.50;99.90;;;;;;5045957;28;20048;-67
2022/10/31 10:19:15;;;;;;;0.13;0.13;;;14.50;99.90;;;;;;5070761;28;20694;-66
2022/10/31 10:21:46;;;;;;;0.43;0.43;;;14.50;99.90;;;;;;5060639;28;20049;-66
2022/10/31 10:24:38;;;;;;;0.10;0.10;;;14.60;99.90;;;;;;5069766;28;20064;-65
2022/10/31 10:27:18;;;;;;;0.10;0.10;;;14.70;99.90;;;;;;5059557;28;20036;-66
2022/10/31 10:29:50;;;;;;;0.30;0.30;;;14.70;99.90;;;;;;5059221;28;20048;-65
2022/10/31 10:32:29;;;;;;;0.93;0.93;;;14.80;99.90;;;;;;5057483;28;20048;-65
2022/10/31 10:35:07;;;;;;;0.30;0.30;;;14.80;99.90;;;;;;5061660;28;20131;-65
2022/10/31 10:37:38;;;;;;;0.30;0.30;;;14.80;99.90;;;;;;5053679;28;20049;-66
2022/10/31 10:40:14;;;;;;;0.10;0.10;;;14.80;99.90;;;;;;5058577;28;20361;-66
2022/10/31 10:48:21;;;;;;;0.10;0.10;;;14.90;99.90;;;;;;5058124;28;20218;-66
2022/10/31 10:50:52;;;;;;;0.55;0.55;;;14.90;99.90;;;;;;5048161;28;20057;-66
2022/10/31 10:53:38;;;;;;;0.10;0.10;;;14.80;99.90;;;;;;5056927;28;20036;-66
2022/10/31 10:56:17;;;;;;;0.55;0.55;;;14.90;99.90;;;;;;5059494;28;20044;-66
2022/10/31 10:58:44;;;;;;;0.03;0.03;;;14.90;99.90;;;;;;5060593;28;20056;-66
2022/10/31 11:01:12;;;;;;;23.10;0.93;;;14.90;99.90;;;;;;5059695;28;20052;-66
2022/10/31 11:03:39;;;;;;;0.35;0.35;;;14.90;99.90;;;;;;5054532;28;20033;-67
2022/10/31 11:06:21;;;;;;;0.77;0.77;;;14.90;99.90;;;;;;5059607;28;20086;-66
2022/10/31 11:08:48;;;;;;;0.10;0.10;;;14.90;99.90;;;;;;5055199;28;20119;-71
2022/10/31 11:11:16;;;;;;;2.40;0.80;;;14.90;99.90;;;;;;5058718;28;20072;-66
2022/10/31 11:13:47;;;;;;;1.25;0.95;;;15.10;99.90;;;;;;5055232;28;20056;-67
2022/10/31 11:16:34;;;;;;;0.77;0.73;;;15.10;99.90;;;;;;5048134;28;20056;-67
2022/10/31 11:19:27;;;;;;;0.10;0.10;;;15.40;99.90;;;;;;5045842;28;20037;-67
2022/10/31 11:21:53;;;;;;;0.10;0.10;;;15.40;99.90;;;;;;5056409;28;20199;-66
2022/10/31 11:24:26;;;;;;;0.30;0.30;;;15.50;99.90;;;;;;5049523;28;20373;-67
2022/10/31 11:26:51;;;;;;;1.35;0.73;;;15.50;99.90;;;;;;5057666;28;20041;-67
2022/10/31 11:29:21;;;;;;;0.28;0.28;;;15.50;99.90;;;;;;5056469;28;20055;-67
2022/10/31 11:31:49;;;;;;;0.20;0.20;;;15.80;99.90;;;;;;5046871;28;20123;-66
2022/10/31 11:34:41;;;;;;;2.65;2.05;;;16.20;99.90;;;;;;5064481;28;20122;-66
2022/10/31 11:37:16;;;;;;;6.35;1.38;;;16.50;99.90;;;;;;5038453;28;20061;-66
2022/10/31 11:39:45;;;;;;;1.95;1.20;;;16.90;99.90;;;;;;5057039;28;20443;-66
2022/10/31 11:42:13;;;;;;;0.45;0.40;;;17.50;99.90;;;;;;5058042;28;20036;-67
2022/10/31 11:44:42;;;;;;;0.30;0.30;;;17.60;99.90;;;;;;5057883;28;20045;-67
2022/10/31 11:47:13;;;;;;;0.10;0.10;;;17.80;99.90;;;;;;5064271;28;20053;-67
2022/10/31 11:49:42;;;;;;;0.30;0.30;;;17.80;99.90;;;;;;5069692;28;20119;-67
2022/10/31 11:52:18;;;;;;;0.22;0.22;;;17.80;99.90;;;;;;5063955;28;20048;-67
2022/10/31 11:54:48;;;;;;;0.30;0.30;;;17.70;99.90;;;;;;5061192;28;20163;-67
2022/10/31 11:57:47;;;;;;;0.32;0.32;;;17.30;99.90;;;;;;5065746;28;20671;-67
2022/10/31 12:00:25;;;;;;;0.30;0.30;;;17.10;99.90;;;;;;5051693;28;20106;-67
2022/10/31 12:03:03;;;;;;;2.75;1.02;;;17.00;99.90;;;;;;5065330;28;20082;-67
2022/10/31 12:05:32;;;;;;;1.52;0.88;;;16.80;99.90;;;;;;5066242;28;20041;-67
2022/10/31 12:07:58;;;;;;;0.40;0.40;;;16.80;99.90;;;;;;5053115;28;20450;-67
2022/10/31 12:10:34;;;;;;;0.40;0.40;;;16.70;99.90;;;;;;5072241;28;20498;-66
2022/10/31 12:13:31;;;;;;;0.25;0.25;;;16.60;99.90;;;;;;5061354;28;20541;-66
2022/10/31 12:16:21;;;;;;;0.90;0.68;;;16.50;99.90;;;;;;5068986;28;20064;-67
2022/10/31 12:19:03;;;;;;;0.32;0.32;;;16.30;99.90;;;;;;5064325;28;20040;-66
2022/10/31 12:21:45;;;;;;;0.13;0.13;;;16.50;99.90;;;;;;5067134;28;20109;-67
2022/10/31 12:24:36;;;;;;;1.15;1.08;;;16.70;99.90;;;;;;5066707;28;20044;-66
2022/10/31 12:27:45;;;;;;;0.30;0.30;;;16.80;99.90;;;;;;5067561;28;20048;-66
2022/10/31 12:30:14;;;;;;;0.40;0.40;;;17.00;99.90;;;;;;5066188;28;20044;-66
2022/10/31 12:32:42;;;;;;;0.13;0.13;;;17.10;99.90;;;;;;5068321;28;20055;-66
2022/10/31 12:35:36;;;;;;;1.13;1.05;;;17.00;99.90;;;;;;5040761;28;20484;-66
2022/10/31 12:38:29;;;;;;;0.20;0.20;;;16.90;99.90;;;;;;5071429;28;20044;-65
2022/10/31 12:41:23;;;;;;;0.10;0.10;;;16.90;99.90;;;;;;5067168;28;20047;-66
2022/10/31 12:43:54;;;;;;;0.40;0.40;;;17.10;99.90;;;;;;5064861;28;20080;-66
2022/10/31 12:46:51;;;;;;;0.52;0.52;;;17.00;99.90;;;;;;5059432;28;20055;-66
2022/10/31 12:49:33;;;;;;;0.65;0.65;;;17.10;99.90;;;;;;5061617;28;20047;-66
2022/10/31 12:52:18;;;;;;;0.10;0.10;;;17.50;99.90;;;;;;5062807;28;20080;-66
2022/10/31 12:55:08;;;;;;;1.15;0.95;;;17.80;99.90;;;;;;5058750;28;20049;-66
2022/10/31 12:57:39;;;;;;;0.20;0.20;;;18.00;99.90;;;;;;5038495;28;20143;-66
2022/10/31 13:00:16;;;;;;;0.20;0.20;;;18.40;99.90;;;;;;5063539;28;20094;-66
2022/10/31 13:03:08;;;;;;;0.10;0.10;;;18.30;99.90;;;;;;5044129;28;20044;-66
2022/10/31 13:05:41;;;;;;;0.08;0.08;;;18.70;99.90;;;;;;5063968;28;20045;-66
2022/10/31 13:08:15;;;;;;;0.10;0.10;;;18.90;99.90;;;;;;5052215;28;20049;-66
2022/10/31 13:10:49;;;;;;;0.10;0.10;;;19.00;99.90;;;;;;5062909;28;20053;-67